createdAt,value
2018-05-11T00:01:43.464Z,14.63
2018-05-11T00:04:14.506Z,15.30
2018-05-11T00:06:45.494Z,15.27
2018-05-11T00:09:16.511Z,14.60
2018-05-11T00:11:47.490Z,14.17
2018-05-11T00:14:18.536Z,14.90
2018-05-11T00:16:49.525Z,15.73
2018-05-11T00:19:20.509Z,16.60
2018-05-11T00:21:51.515Z,14.87
2018-05-11T00:24:22.510Z,15.27
2018-05-11T00:26:53.493Z,15.60
2018-05-11T00:29:24.494Z,14.77
2018-05-11T00:31:55.457Z,15.80
2018-05-11T00:34:26.483Z,13.20
2018-05-11T00:36:57.471Z,12.47
2018-05-11T00:39:28.455Z,12.50
2018-05-11T00:41:59.421Z,13.17
2018-05-11T00:44:30.413Z,13.17
2018-05-11T00:47:01.383Z,13.13
2018-05-11T00:49:32.370Z,12.17
2018-05-11T00:52:03.369Z,11.43
2018-05-11T00:54:34.397Z,11.97
2018-05-11T00:57:05.375Z,10.20
2018-05-11T00:59:36.366Z,12.13
2018-05-11T01:02:07.390Z,11.23
2018-05-11T01:04:38.350Z,9.90
2018-05-11T01:07:09.373Z,9.83
2018-05-11T01:09:40.360Z,10.77
2018-05-11T01:12:11.338Z,11.53
2018-05-11T01:14:42.333Z,12.10
2018-05-11T01:17:13.366Z,12.07
2018-05-11T01:19:44.404Z,10.77
2018-05-11T01:22:15.412Z,11.63
2018-05-11T01:24:46.364Z,11.53
2018-05-11T01:27:17.382Z,11.37
2018-05-11T01:29:48.431Z,11.43
2018-05-11T01:32:19.406Z,10.70
2018-05-11T01:34:50.445Z,11.93
2018-05-11T01:37:21.438Z,10.67
2018-05-11T01:39:52.488Z,12.17
2018-05-11T01:42:23.379Z,11.00
2018-05-11T01:44:54.355Z,11.70
2018-05-11T01:47:25.329Z,12.87
2018-05-11T01:49:56.317Z,13.47
2018-05-11T01:52:27.290Z,14.00
2018-05-11T01:54:58.291Z,14.80
2018-05-11T01:57:29.290Z,13.43
2018-05-11T02:00:00.317Z,12.13
2018-05-11T02:02:31.320Z,13.00
2018-05-11T02:05:02.335Z,12.73
2018-05-11T02:07:33.310Z,11.93
2018-05-11T02:10:04.381Z,11.23
2018-05-11T02:12:35.384Z,12.00
2018-05-11T02:15:06.462Z,11.10
2018-05-11T02:17:37.498Z,12.77
2018-05-11T02:20:08.523Z,11.20
2018-05-11T02:22:39.503Z,11.87
2018-05-11T02:25:10.471Z,11.87
2018-05-11T02:27:41.530Z,11.70
2018-05-11T02:30:12.509Z,12.13
2018-05-11T02:32:43.519Z,12.10
2018-05-11T02:35:14.518Z,10.97
2018-05-11T02:37:45.552Z,12.37
2018-05-11T02:40:16.536Z,11.53
2018-05-11T02:42:47.540Z,14.23
2018-05-11T02:45:18.557Z,13.63
2018-05-11T02:47:49.552Z,12.37
2018-05-11T02:50:20.607Z,11.73
2018-05-11T02:52:51.608Z,12.50
2018-05-11T02:55:22.584Z,12.50
2018-05-11T02:57:53.560Z,11.33
2018-05-11T03:00:24.545Z,11.93
2018-05-11T03:02:55.503Z,11.77
2018-05-11T03:05:26.465Z,11.43
2018-05-11T03:07:57.433Z,11.13
2018-05-11T03:10:28.538Z,10.53
2018-05-11T03:12:59.480Z,11.10
2018-05-11T03:15:30.495Z,10.20
2018-05-11T03:18:01.544Z,12.60
2018-05-11T03:20:32.571Z,10.77
2018-05-11T03:23:03.617Z,11.43
2018-05-11T03:25:34.598Z,13.57
2018-05-11T03:28:05.651Z,13.00
2018-05-11T03:30:36.643Z,11.67
2018-05-11T03:33:08.473Z,17.60
2018-05-11T03:35:39.446Z,11.00
2018-05-11T03:38:10.450Z,13.30
2018-05-11T03:40:41.428Z,11.73
2018-05-11T03:43:12.389Z,11.33
2018-05-11T03:45:43.388Z,11.03
2018-05-11T03:48:14.380Z,11.73
2018-05-11T03:50:45.400Z,10.60
2018-05-11T03:53:16.394Z,10.63
2018-05-11T03:55:47.354Z,10.73
2018-05-11T03:58:18.332Z,10.80
2018-05-11T04:00:49.336Z,12.40
2018-05-11T04:03:32.737Z,10.80
2018-05-11T04:06:03.755Z,10.07
2018-05-11T04:08:43.411Z,12.20
2018-05-11T04:11:14.376Z,10.57
2018-05-11T04:13:45.399Z,13.13
2018-05-11T04:16:16.388Z,10.67
2018-05-11T04:18:47.356Z,11.23
2018-05-11T04:21:18.385Z,10.83
2018-05-11T04:23:49.420Z,9.63
2018-05-11T04:26:20.419Z,11.53
2018-05-11T04:28:51.396Z,11.57
2018-05-11T04:31:22.410Z,9.47
2018-05-11T04:33:53.391Z,10.27
2018-05-11T04:36:24.391Z,13.00
2018-05-11T04:38:55.406Z,11.30
2018-05-11T04:41:26.393Z,10.23
2018-05-11T04:43:57.435Z,10.40
2018-05-11T04:46:28.398Z,10.90
2018-05-11T04:48:59.418Z,10.60
2018-05-11T04:51:30.404Z,11.00
2018-05-11T04:54:01.433Z,10.40
2018-05-11T04:56:32.402Z,10.30
2018-05-11T04:59:03.389Z,10.90
2018-05-11T05:01:34.385Z,10.50
2018-05-11T05:04:05.385Z,10.60
2018-05-11T05:06:36.377Z,12.07
2018-05-11T05:09:07.356Z,11.07
2018-05-11T05:11:38.392Z,10.27
2018-05-11T05:14:09.365Z,10.30
2018-05-11T05:16:40.387Z,10.57
2018-05-11T05:19:11.468Z,11.00
2018-05-11T05:21:42.388Z,11.17
2018-05-11T05:24:13.359Z,11.67
2018-05-11T05:26:44.373Z,11.00
2018-05-11T05:29:15.353Z,10.67
2018-05-11T05:31:46.345Z,12.17
2018-05-11T05:34:17.326Z,14.23
2018-05-11T05:36:48.330Z,11.80
2018-05-11T05:39:19.321Z,13.73
2018-05-11T05:41:50.296Z,15.10
2018-05-11T05:44:21.289Z,13.67
2018-05-11T05:46:52.280Z,14.47
2018-05-11T05:49:23.264Z,14.20
2018-05-11T05:51:54.295Z,16.67
2018-05-11T05:54:25.266Z,16.47
2018-05-11T05:56:56.276Z,15.47
2018-05-11T05:59:27.283Z,18.57
2018-05-11T06:01:58.283Z,15.33
2018-05-11T06:04:29.223Z,16.47
2018-05-11T06:07:00.282Z,16.10
2018-05-11T06:09:31.303Z,17.13
2018-05-11T06:12:02.342Z,17.77
2018-05-11T06:14:33.341Z,19.73
2018-05-11T06:17:05.138Z,18.63
2018-05-11T06:19:38.666Z,19.67
2018-05-11T06:22:09.888Z,20.67
2018-05-11T06:24:41.055Z,20.80
2018-05-11T06:27:14.324Z,18.67
2018-05-11T06:29:45.429Z,20.23
2018-05-11T06:32:17.369Z,20.47
2018-05-11T06:34:48.527Z,19.33
2018-05-11T06:37:19.651Z,20.90
2018-05-11T06:39:50.840Z,20.90
2018-05-11T06:42:23.004Z,19.53
2018-05-11T06:44:54.004Z,24.13
2018-05-11T06:47:25.004Z,23.03
2018-05-11T06:49:56.044Z,23.97
2018-05-11T06:52:27.016Z,24.17
2018-05-11T06:54:57.997Z,25.47
2018-05-11T06:57:28.978Z,24.83
2018-05-11T06:59:59.994Z,24.07
2018-05-11T07:02:30.968Z,24.87
2018-05-11T07:05:01.980Z,25.43
2018-05-11T07:07:32.965Z,26.60
2018-05-11T07:10:04.014Z,26.37
2018-05-11T07:12:35.028Z,24.60
2018-05-11T07:15:06.042Z,26.30
2018-05-11T07:17:37.032Z,26.67
2018-05-11T07:20:08.078Z,25.80
2018-05-11T07:22:39.069Z,25.43
2018-05-11T07:25:10.106Z,24.70
2018-05-11T07:27:41.108Z,24.93
2018-05-11T07:30:12.120Z,25.43
2018-05-11T07:32:43.138Z,25.50
2018-05-11T07:35:14.173Z,25.77
2018-05-11T07:37:45.164Z,25.27
2018-05-11T07:40:16.244Z,24.47
2018-05-11T07:42:47.189Z,25.30
2018-05-11T07:45:18.198Z,25.90
2018-05-11T07:47:49.210Z,25.60
2018-05-11T07:50:20.212Z,26.17
2018-05-11T07:52:51.177Z,25.20
2018-05-11T07:55:22.179Z,27.07
2018-05-11T07:57:53.166Z,26.80
2018-05-11T08:00:24.160Z,30.00
2018-05-11T08:02:55.196Z,29.13
2018-05-11T08:05:26.223Z,29.67
2018-05-11T08:07:57.227Z,30.80
2018-05-11T08:10:28.476Z,28.07
2018-05-11T08:13:00.457Z,27.57
2018-05-11T08:15:31.564Z,27.33
2018-05-11T08:18:02.561Z,30.43
2018-05-11T08:20:33.582Z,28.97
2018-05-11T08:23:04.613Z,27.67
2018-05-11T08:25:35.626Z,27.67
2018-05-11T08:28:06.613Z,29.87
2018-05-11T08:30:37.768Z,27.87
2018-05-11T08:33:08.779Z,27.43
2018-05-11T08:35:39.755Z,30.40
2018-05-11T08:38:10.715Z,30.67
2018-05-11T08:40:41.776Z,32.53
2018-05-11T08:43:12.771Z,32.13
2018-05-11T08:45:43.776Z,32.20
2018-05-11T08:48:14.734Z,28.53
2018-05-11T08:50:45.760Z,28.70
2018-05-11T08:53:16.771Z,30.67
2018-05-11T08:55:47.862Z,31.83
2018-05-11T08:58:18.904Z,31.03
2018-05-11T09:00:49.913Z,32.43
2018-05-11T09:03:20.924Z,36.70
2018-05-11T09:05:51.949Z,32.67
2018-05-11T09:08:22.951Z,31.83
2018-05-11T09:10:53.916Z,31.83
2018-05-11T09:13:31.917Z,30.00
2018-05-11T09:16:02.945Z,31.07
2018-05-11T09:18:33.941Z,29.70
2018-05-11T09:21:04.946Z,29.80
2018-05-11T09:23:35.945Z,28.80
2018-05-11T09:26:06.999Z,31.40
2018-05-11T09:28:38.036Z,31.33
2018-05-11T09:31:09.051Z,29.50
2018-05-11T09:33:40.033Z,29.33
2018-05-11T09:36:11.033Z,29.60
2018-05-11T09:38:42.044Z,28.37
2018-05-11T09:41:13.026Z,28.60
2018-05-11T09:43:44.065Z,28.77
2018-05-11T09:46:15.102Z,28.50
2018-05-11T09:48:46.132Z,31.13
2018-05-11T09:51:17.176Z,32.17
2018-05-11T09:53:48.130Z,30.40
2018-05-11T09:56:19.279Z,29.57
2018-05-11T09:58:50.270Z,28.13
2018-05-11T10:01:21.270Z,26.90
2018-05-11T10:03:52.258Z,28.30
2018-05-11T10:06:23.225Z,26.83
2018-05-11T10:08:54.248Z,27.93
2018-05-11T10:11:25.274Z,26.87
2018-05-11T10:13:56.331Z,29.60
2018-05-11T10:16:27.308Z,32.33
2018-05-11T10:18:58.273Z,35.20
2018-05-11T10:21:29.258Z,40.13
2018-05-11T10:24:00.235Z,38.07
2018-05-11T10:26:31.253Z,37.17
2018-05-11T10:29:02.334Z,37.40
2018-05-11T10:31:33.304Z,38.07
2018-05-11T10:34:04.280Z,34.90
2018-05-11T10:36:35.245Z,36.13
2018-05-11T10:39:06.228Z,38.00
2018-05-11T10:41:37.192Z,36.07
2018-05-11T10:44:08.220Z,36.33
2018-05-11T10:46:39.225Z,36.60
2018-05-11T10:49:10.223Z,36.80
2018-05-11T10:51:41.300Z,35.83
2018-05-11T10:54:12.278Z,35.27
2018-05-11T10:56:43.331Z,35.43
2018-05-11T10:59:14.353Z,36.40
2018-05-11T11:01:45.320Z,33.63
2018-05-11T11:04:16.274Z,32.90
2018-05-11T11:06:47.231Z,34.23
2018-05-11T11:09:18.229Z,37.63
2018-05-11T11:11:49.217Z,36.80
2018-05-11T11:14:20.202Z,36.47
2018-05-11T11:16:58.354Z,35.07
2018-05-11T11:19:29.334Z,34.93
2018-05-11T11:22:00.368Z,37.37
2018-05-11T11:24:31.350Z,36.80
2018-05-11T11:27:02.346Z,42.33
2018-05-11T11:29:33.281Z,38.40
2018-05-11T11:32:04.344Z,36.67
2018-05-11T11:34:42.399Z,36.17
2018-05-11T11:37:13.433Z,36.93
2018-05-11T11:39:44.442Z,34.33
2018-05-11T11:42:15.499Z,33.03
2018-05-11T11:44:46.492Z,33.57
2018-05-11T11:47:17.489Z,35.63
2018-05-11T11:49:48.475Z,37.33
2018-05-11T11:52:19.437Z,37.47
2018-05-11T11:54:50.424Z,38.07
2018-05-11T11:57:21.425Z,38.30
2018-05-11T11:59:52.446Z,36.67
2018-05-11T12:02:23.489Z,38.40
2018-05-11T12:04:54.520Z,41.33
2018-05-11T12:07:25.483Z,40.67
2018-05-11T12:09:56.492Z,35.80
2018-05-11T12:12:27.464Z,34.83
2018-05-11T12:14:58.480Z,33.43
2018-05-11T12:17:29.443Z,29.07
2018-05-11T12:20:00.419Z,29.17
2018-05-11T12:22:31.456Z,32.17
2018-05-11T12:25:02.436Z,32.20
2018-05-11T12:27:33.446Z,32.97
2018-05-11T12:30:04.460Z,33.10
2018-05-11T12:32:35.496Z,30.00
2018-05-11T12:35:06.492Z,27.63
2018-05-11T12:37:37.504Z,28.63
2018-05-11T12:40:08.529Z,31.50
2018-05-11T12:42:39.488Z,30.07
2018-05-11T12:45:10.490Z,31.63
2018-05-11T12:47:41.538Z,31.07
2018-05-11T12:50:12.520Z,35.23
2018-05-11T12:52:43.641Z,32.93
2018-05-11T12:55:14.545Z,31.63
2018-05-11T12:57:45.558Z,28.23
2018-05-11T13:00:16.562Z,28.73
2018-05-11T13:02:47.564Z,29.33
2018-05-11T13:05:18.547Z,29.60
2018-05-11T13:07:49.522Z,32.00
2018-05-11T13:10:20.498Z,30.37
2018-05-11T13:12:51.518Z,30.73
2018-05-11T13:15:22.504Z,31.23
2018-05-11T13:17:53.512Z,30.27
2018-05-11T13:20:24.510Z,28.90
2018-05-11T13:22:55.530Z,28.13
2018-05-11T13:25:26.514Z,28.60
2018-05-11T13:28:04.466Z,30.40
2018-05-11T13:30:36.028Z,29.10
2018-05-11T13:33:07.026Z,25.23
2018-05-11T13:35:38.032Z,26.53
2018-05-11T13:38:09.044Z,26.50
2018-05-11T13:40:40.053Z,30.37
2018-05-11T13:43:11.041Z,31.50
2018-05-11T13:45:42.013Z,31.37
2018-05-11T13:48:13.014Z,31.13
2018-05-11T13:50:43.980Z,32.37
2018-05-11T13:53:14.956Z,30.10
2018-05-11T13:55:45.979Z,29.10
2018-05-11T13:58:16.997Z,29.83
2018-05-11T14:00:47.980Z,28.97
2018-05-11T14:03:19.028Z,29.37
2018-05-11T14:05:49.997Z,30.30
2018-05-11T14:08:20.993Z,29.97
2018-05-11T14:10:51.995Z,28.77
2018-05-11T14:13:23.013Z,31.37
2018-05-11T14:15:53.999Z,28.87
2018-05-11T14:18:24.964Z,29.70
2018-05-11T14:20:55.948Z,27.73
2018-05-11T14:23:26.956Z,25.93
2018-05-11T14:25:57.926Z,27.73
2018-05-11T14:28:28.934Z,28.33
2018-05-11T14:30:59.957Z,25.63
2018-05-11T14:33:30.987Z,26.73
2018-05-11T14:36:02.066Z,27.03
2018-05-11T14:38:33.062Z,30.10
2018-05-11T14:41:04.090Z,26.07
2018-05-11T14:43:35.054Z,26.80
2018-05-11T14:46:06.054Z,26.80
2018-05-11T14:48:37.042Z,27.10
2018-05-11T14:51:08.039Z,25.83
2018-05-11T14:53:39.039Z,26.03
2018-05-11T14:56:10.036Z,25.67
2018-05-11T14:58:41.046Z,24.17
2018-05-11T15:01:12.017Z,24.40
2018-05-11T15:03:43.012Z,25.87
2018-05-11T15:06:13.988Z,25.47
2018-05-11T15:08:44.966Z,26.07
2018-05-11T15:11:16.008Z,24.37
2018-05-11T15:13:47.033Z,24.43
2018-05-11T15:16:18.076Z,23.90
2018-05-11T15:18:49.120Z,22.00
2018-05-11T15:21:20.159Z,22.13
2018-05-11T15:23:51.122Z,22.80
2018-05-11T15:26:22.192Z,21.73
2018-05-11T15:28:53.183Z,21.47
2018-05-11T15:31:24.199Z,25.17
2018-05-11T15:33:55.226Z,23.27
2018-05-11T15:36:26.220Z,22.23
2018-05-11T15:38:57.265Z,23.70
2018-05-11T15:41:28.283Z,22.97
2018-05-11T15:43:59.348Z,20.93
2018-05-11T15:46:30.415Z,21.30
2018-05-11T15:49:01.356Z,21.40
2018-05-11T15:51:32.410Z,20.93
2018-05-11T15:54:03.410Z,22.27
2018-05-11T15:56:34.374Z,20.90
2018-05-11T15:59:05.459Z,19.27
2018-05-11T16:01:36.545Z,19.57
2018-05-11T16:04:07.515Z,21.27
2018-05-11T16:06:38.524Z,20.40
2018-05-11T16:09:09.530Z,23.27
2018-05-11T16:11:41.411Z,20.47
2018-05-11T16:14:12.677Z,20.67
2018-05-11T16:16:43.700Z,20.80
2018-05-11T16:19:14.932Z,19.53
2018-05-11T16:21:46.039Z,21.00
2018-05-11T16:24:17.040Z,19.83
2018-05-11T16:26:48.090Z,19.50
2018-05-11T16:29:19.076Z,19.47
2018-05-11T16:31:50.041Z,20.00
2018-05-11T16:34:20.975Z,19.73
2018-05-11T16:36:51.979Z,18.60
2018-05-11T16:39:22.971Z,17.43
2018-05-11T16:41:54.001Z,20.23
2018-05-11T16:44:24.997Z,17.43
2018-05-11T16:46:56.011Z,17.97
2018-05-11T16:49:26.979Z,19.57
2018-05-11T16:51:57.972Z,20.93
2018-05-11T16:54:28.954Z,19.57
2018-05-11T16:57:00.032Z,20.20
2018-05-11T16:59:31.021Z,19.77
2018-05-11T17:02:02.065Z,21.23
2018-05-11T17:04:33.051Z,20.33
2018-05-11T17:07:04.035Z,20.70
2018-05-11T17:09:35.038Z,19.17
2018-05-11T17:12:06.031Z,19.13
2018-05-11T17:14:37.003Z,18.43
2018-05-11T17:17:07.991Z,18.30
2018-05-11T17:19:39.024Z,19.90
2018-05-11T17:22:10.024Z,19.63
2018-05-11T17:24:41.032Z,18.03
2018-05-11T17:27:11.998Z,20.03
2018-05-11T17:29:43.037Z,20.27
2018-05-11T17:32:14.038Z,18.17
2018-05-11T17:34:45.068Z,17.57
2018-05-11T17:37:16.058Z,17.87
2018-05-11T17:39:47.080Z,17.07
2018-05-11T17:42:18.088Z,16.83
2018-05-11T17:44:49.084Z,17.50
2018-05-11T17:47:20.116Z,18.47
2018-05-11T17:49:51.160Z,17.67
2018-05-11T17:52:22.109Z,17.57
2018-05-11T17:54:53.148Z,16.37
2018-05-11T17:57:24.143Z,17.80
2018-05-11T17:59:55.124Z,16.90
2018-05-11T18:02:26.105Z,16.73
2018-05-11T18:04:57.115Z,17.80
2018-05-11T18:07:28.094Z,18.03
2018-05-11T18:09:59.600Z,16.93
2018-05-11T18:12:30.564Z,16.77
2018-05-11T18:15:01.585Z,17.27
2018-05-11T18:17:32.578Z,15.80
2018-05-11T18:20:03.531Z,16.30
2018-05-11T18:22:34.548Z,16.33
2018-05-11T18:25:05.563Z,17.07
2018-05-11T18:27:36.607Z,15.47
2018-05-11T18:30:07.599Z,14.80
2018-05-11T18:32:38.578Z,15.00
2018-05-11T18:35:09.604Z,15.10
2018-05-11T18:37:40.581Z,16.07
2018-05-11T18:40:11.665Z,14.83
2018-05-11T18:42:42.575Z,14.33
2018-05-11T18:45:13.576Z,16.00
2018-05-11T18:47:44.549Z,14.83
2018-05-11T18:50:15.564Z,15.07
2018-05-11T18:52:46.540Z,15.07
2018-05-11T18:55:17.591Z,15.20
2018-05-11T18:57:48.585Z,13.23
2018-05-11T19:00:19.620Z,16.10
2018-05-11T19:02:50.617Z,16.93
2018-05-11T19:05:21.588Z,16.17
2018-05-11T19:07:52.764Z,15.03
2018-05-11T19:10:23.802Z,15.50
2018-05-11T19:12:54.802Z,15.37
2018-05-11T19:15:25.828Z,17.50
2018-05-11T19:17:56.910Z,18.23
2018-05-11T19:20:27.878Z,17.67
2018-05-11T19:22:58.884Z,16.67
2018-05-11T19:25:29.893Z,17.37
2018-05-11T19:28:00.913Z,22.33
2018-05-11T19:30:31.910Z,16.00
2018-05-11T19:33:02.927Z,17.30
2018-05-11T19:35:33.929Z,17.43
2018-05-11T19:38:04.919Z,17.53
2018-05-11T19:40:35.906Z,17.77
2018-05-11T19:43:06.868Z,17.30
2018-05-11T19:45:37.854Z,18.93
2018-05-11T19:48:08.786Z,19.57
2018-05-11T19:50:39.791Z,18.13
2018-05-11T19:53:10.754Z,17.30
2018-05-11T19:55:41.762Z,18.37
2018-05-11T19:58:12.760Z,18.10
2018-05-11T20:00:43.775Z,18.10
2018-05-11T20:03:14.849Z,18.17
2018-05-11T20:05:45.814Z,17.90
2018-05-11T20:08:16.811Z,17.10
2018-05-11T20:10:47.799Z,17.03
2018-05-11T20:13:18.811Z,16.27
2018-05-11T20:15:49.828Z,16.07
2018-05-11T20:18:20.872Z,16.50
2018-05-11T20:20:51.826Z,17.17
2018-05-11T20:23:22.850Z,15.70
2018-05-11T20:25:53.868Z,16.63
2018-05-11T20:28:24.838Z,17.60
2018-05-11T20:30:55.849Z,16.20
2018-05-11T20:33:26.865Z,17.03
2018-05-11T20:35:57.851Z,17.80
2018-05-11T20:38:28.838Z,18.57
2018-05-11T20:40:59.798Z,18.17
2018-05-11T20:43:30.844Z,17.90
2018-05-11T20:46:01.902Z,17.77
2018-05-11T20:48:33.003Z,16.73
2018-05-11T20:51:04.005Z,18.10
2018-05-11T20:53:35.013Z,14.93
2018-05-11T20:56:06.007Z,15.97
2018-05-11T20:58:37.006Z,14.20
2018-05-11T21:01:08.059Z,13.47
2018-05-11T21:03:39.018Z,15.27
2018-05-11T21:06:10.015Z,14.33
2018-05-11T21:08:40.987Z,14.97
2018-05-11T21:11:12.014Z,15.00
2018-05-11T21:13:43.001Z,15.40
2018-05-11T21:16:14.000Z,14.53
2018-05-11T21:18:44.992Z,14.83
2018-05-11T21:21:15.992Z,15.67
2018-05-11T21:23:46.997Z,16.03
2018-05-11T21:26:17.959Z,16.37
2018-05-11T21:28:48.962Z,16.93
2018-05-11T21:31:20.008Z,15.40
2018-05-11T21:33:51.020Z,14.23
2018-05-11T21:36:21.982Z,15.50
2018-05-11T21:38:52.976Z,15.27
2018-05-11T21:41:23.966Z,15.77
2018-05-11T21:44:01.874Z,16.27
2018-05-11T21:46:32.897Z,15.53
2018-05-11T21:49:03.916Z,15.00
2018-05-11T21:51:34.903Z,16.47
2018-05-11T21:54:05.896Z,17.60
2018-05-11T21:56:36.885Z,15.30
2018-05-11T21:59:07.913Z,17.03
2018-05-11T22:01:38.877Z,18.27
2018-05-11T22:04:09.874Z,18.17
2018-05-11T22:06:40.843Z,17.57
2018-05-11T22:09:11.824Z,18.30
2018-05-11T22:11:42.778Z,16.87
2018-05-11T22:14:13.750Z,16.67
2018-05-11T22:16:44.761Z,14.40
2018-05-11T22:19:15.784Z,16.03
2018-05-11T22:21:46.737Z,15.87
2018-05-11T22:24:17.752Z,16.23
2018-05-11T22:26:48.735Z,16.93
2018-05-11T22:29:19.729Z,16.10
2018-05-11T22:31:50.703Z,17.97
2018-05-11T22:34:21.742Z,16.67
2018-05-11T22:36:52.690Z,16.93
2018-05-11T22:39:23.708Z,18.00
2018-05-11T22:41:54.731Z,17.97
2018-05-11T22:44:25.706Z,17.47
2018-05-11T22:46:56.749Z,15.97
2018-05-11T22:49:27.872Z,15.77
2018-05-11T22:51:58.812Z,18.10
2018-05-11T22:54:29.807Z,19.57
2018-05-11T22:57:00.805Z,18.30
2018-05-11T22:59:31.792Z,17.83
2018-05-11T23:02:03.148Z,17.90
2018-05-11T23:04:34.128Z,18.70
2018-05-11T23:07:05.122Z,19.27
2018-05-11T23:09:36.140Z,18.07
2018-05-11T23:12:07.111Z,17.37
2018-05-11T23:14:38.115Z,18.00
2018-05-11T23:17:09.052Z,17.37
2018-05-11T23:19:40.041Z,17.07
2018-05-11T23:22:12.035Z,18.23
2018-05-11T23:24:43.019Z,18.17
2018-05-11T23:27:13.994Z,19.23
2018-05-11T23:29:45.044Z,18.20
2018-05-11T23:32:16.014Z,18.73
2018-05-11T23:34:46.984Z,19.07
2018-05-11T23:37:18.010Z,20.13
2018-05-11T23:39:49.020Z,19.53
2018-05-11T23:42:20.038Z,20.03
2018-05-11T23:44:51.003Z,19.40
2018-05-11T23:47:21.985Z,19.30
2018-05-11T23:49:52.985Z,18.53
2018-05-11T23:52:24.003Z,19.93
2018-05-11T23:54:54.973Z,19.30
2018-05-11T23:57:25.988Z,19.13
2018-05-11T23:59:57.011Z,18.97
